sensor_id;sensor_type;location;lat;lon;timestamp;temperature;humidity
1351;DHT22;669;50.206;9.998;2024-03-06T00:01:35;6.50;26.70
1351;DHT22;669;50.206;9.998;2024-03-06T00:04:04;6.50;27.30
1351;DHT22;669;50.206;9.998;2024-03-06T00:06:31;6.50;27.30
1351;DHT22;669;50.206;9.998;2024-03-06T00:08:59;6.50;27.40
1351;DHT22;669;50.206;9.998;2024-03-06T00:11:29;6.50;28.00
1351;DHT22;669;50.206;9.998;2024-03-06T00:13:57;6.50;28.10
1351;DHT22;669;50.206;9.998;2024-03-06T00:16:25;6.50;28.00
1351;DHT22;669;50.206;9.998;2024-03-06T00:18:54;6.50;28.10
1351;DHT22;669;50.206;9.998;2024-03-06T00:21:22;6.60;28.20
1351;DHT22;669;50.206;9.998;2024-03-06T00:23:50;6.60;28.60
1351;DHT22;669;50.206;9.998;2024-03-06T00:26:18;6.60;28.40
1351;DHT22;669;50.206;9.998;2024-03-06T00:28:46;6.60;28.50
1351;DHT22;669;50.206;9.998;2024-03-06T00:31:14;6.60;28.40
1351;DHT22;669;50.206;9.998;2024-03-06T00:33:42;6.60;27.90
1351;DHT22;669;50.206;9.998;2024-03-06T00:36:11;6.50;28.10
1351;DHT22;669;50.206;9.998;2024-03-06T00:38:39;6.60;28.30
1351;DHT22;669;50.206;9.998;2024-03-06T00:41:07;6.60;28.50
1351;DHT22;669;50.206;9.998;2024-03-06T00:43:35;6.60;28.30
1351;DHT22;669;50.206;9.998;2024-03-06T00:46:03;6.60;28.30
1351;DHT22;669;50.206;9.998;2024-03-06T00:48:31;6.50;28.20
1351;DHT22;669;50.206;9.998;2024-03-06T00:50:59;6.50;28.40
1351;DHT22;669;50.206;9.998;2024-03-06T00:53:28;6.60;28.40
1351;DHT22;669;50.206;9.998;2024-03-06T00:55:56;6.60;28.30
1351;DHT22;669;50.206;9.998;2024-03-06T00:58:24;6.60;28.10
1351;DHT22;669;50.206;9.998;2024-03-06T01:00:52;6.60;28.10
1351;DHT22;669;50.206;9.998;2024-03-06T01:03:20;6.50;27.40
1351;DHT22;669;50.206;9.998;2024-03-06T01:05:48;6.40;27.70
1351;DHT22;669;50.206;9.998;2024-03-06T01:08:16;6.50;28.20
1351;DHT22;669;50.206;9.998;2024-03-06T01:10:46;6.40;28.30
1351;DHT22;669;50.206;9.998;2024-03-06T01:13:14;6.40;28.40
1351;DHT22;669;50.206;9.998;2024-03-06T01:15:42;6.40;28.10
1351;DHT22;669;50.206;9.998;2024-03-06T01:18:09;6.40;28.60
1351;DHT22;669;50.206;9.998;2024-03-06T01:20:37;6.40;27.90
1351;DHT22;669;50.206;9.998;2024-03-06T01:23:05;6.30;27.90
1351;DHT22;669;50.206;9.998;2024-03-06T01:25:33;6.30;28.40
1351;DHT22;669;50.206;9.998;2024-03-06T01:28:03;6.30;28.90
1351;DHT22;669;50.206;9.998;2024-03-06T01:30:32;6.30;28.80
1351;DHT22;669;50.206;9.998;2024-03-06T01:33:00;6.30;28.80
1351;DHT22;669;50.206;9.998;2024-03-06T01:35:27;6.40;28.50
1351;DHT22;669;50.206;9.998;2024-03-06T01:37:56;6.30;27.70
1351;DHT22;669;50.206;9.998;2024-03-06T01:40:23;6.30;27.60
1351;DHT22;669;50.206;9.998;2024-03-06T01:42:51;6.20;28.30
1351;DHT22;669;50.206;9.998;2024-03-06T01:45:21;6.30;28.90
1351;DHT22;669;50.206;9.998;2024-03-06T01:47:49;6.30;28.90
1351;DHT22;669;50.206;9.998;2024-03-06T01:50:17;6.30;28.90
1351;DHT22;669;50.206;9.998;2024-03-06T01:52:46;6.30;28.80
1351;DHT22;669;50.206;9.998;2024-03-06T01:55:15;6.30;28.80
1351;DHT22;669;50.206;9.998;2024-03-06T01:57:43;6.30;28.70
1351;DHT22;669;50.206;9.998;2024-03-06T02:00:11;6.30;28.50
1351;DHT22;669;50.206;9.998;2024-03-06T02:02:43;6.30;28.00
1351;DHT22;669;50.206;9.998;2024-03-06T02:05:11;6.20;27.70
1351;DHT22;669;50.206;9.998;2024-03-06T02:07:39;6.20;28.60
1351;DHT22;669;50.206;9.998;2024-03-06T02:10:08;6.20;28.80
1351;DHT22;669;50.206;9.998;2024-03-06T02:12:39;6.20;28.90
1351;DHT22;669;50.206;9.998;2024-03-06T02:15:08;6.20;28.80
1351;DHT22;669;50.206;9.998;2024-03-06T02:17:40;6.20;28.40
1351;DHT22;669;50.206;9.998;2024-03-06T02:20:10;6.10;28.20
1351;DHT22;669;50.206;9.998;2024-03-06T02:22:42;6.10;28.30
1351;DHT22;669;50.206;9.998;2024-03-06T02:25:11;6.10;28.40
1351;DHT22;669;50.206;9.998;2024-03-06T02:27:39;6.10;28.30
1351;DHT22;669;50.206;9.998;2024-03-06T02:30:08;6.10;28.40
1351;DHT22;669;50.206;9.998;2024-03-06T02:32:35;6.10;29.00
1351;DHT22;669;50.206;9.998;2024-03-06T02:35:04;6.10;29.10
1351;DHT22;669;50.206;9.998;2024-03-06T02:37:35;6.10;29.30
1351;DHT22;669;50.206;9.998;2024-03-06T02:40:06;6.10;29.20
1351;DHT22;669;50.206;9.998;2024-03-06T02:42:36;6.10;29.20
1351;DHT22;669;50.206;9.998;2024-03-06T02:45:06;6.10;28.90
1351;DHT22;669;50.206;9.998;2024-03-06T02:47:35;6.10;28.70
1351;DHT22;669;50.206;9.998;2024-03-06T02:50:03;6.00;28.60
1351;DHT22;669;50.206;9.998;2024-03-06T02:52:32;6.00;29.10
1351;DHT22;669;50.206;9.998;2024-03-06T02:54:59;6.00;29.50
1351;DHT22;669;50.206;9.998;2024-03-06T02:57:29;6.00;29.50
1351;DHT22;669;50.206;9.998;2024-03-06T02:59:57;6.00;29.50
1351;DHT22;669;50.206;9.998;2024-03-06T03:02:25;6.00;29.50
1351;DHT22;669;50.206;9.998;2024-03-06T03:04:53;6.00;29.50
1351;DHT22;669;50.206;9.998;2024-03-06T03:07:21;6.00;29.50
1351;DHT22;669;50.206;9.998;2024-03-06T03:09:50;6.00;29.50
1351;DHT22;669;50.206;9.998;2024-03-06T03:12:18;6.00;29.50
1351;DHT22;669;50.206;9.998;2024-03-06T03:14:47;6.00;29.50
1351;DHT22;669;50.206;9.998;2024-03-06T03:17:15;6.00;29.50
1351;DHT22;669;50.206;9.998;2024-03-06T03:19:43;6.00;29.70
1351;DHT22;669;50.206;9.998;2024-03-06T03:22:11;6.10;29.60
1351;DHT22;669;50.206;9.998;2024-03-06T03:24:41;6.00;29.50
1351;DHT22;669;50.206;9.998;2024-03-06T03:27:09;6.10;30.00
1351;DHT22;669;50.206;9.998;2024-03-06T03:29:37;6.10;29.50
1351;DHT22;669;50.206;9.998;2024-03-06T03:32:08;6.10;29.50
1351;DHT22;669;50.206;9.998;2024-03-06T03:34:36;6.10;29.50
1351;DHT22;669;50.206;9.998;2024-03-06T03:37:04;6.10;29.40
1351;DHT22;669;50.206;9.998;2024-03-06T03:39:32;6.00;28.80
1351;DHT22;669;50.206;9.998;2024-03-06T03:41:59;6.00;28.60
1351;DHT22;669;50.206;9.998;2024-03-06T03:44:27;5.90;28.90
1351;DHT22;669;50.206;9.998;2024-03-06T03:46:55;5.90;29.40
1351;DHT22;669;50.206;9.998;2024-03-06T03:49:24;5.90;29.40
1351;DHT22;669;50.206;9.998;2024-03-06T03:51:52;5.90;29.40
1351;DHT22;669;50.206;9.998;2024-03-06T03:54:20;5.90;29.40
1351;DHT22;669;50.206;9.998;2024-03-06T03:56:48;5.90;29.40
1351;DHT22;669;50.206;9.998;2024-03-06T03:59:16;5.90;29.40
1351;DHT22;669;50.206;9.998;2024-03-06T04:01:45;5.90;29.40
1351;DHT22;669;50.206;9.998;2024-03-06T04:04:13;5.80;29.30
1351;DHT22;669;50.206;9.998;2024-03-06T04:06:43;5.90;29.40
1351;DHT22;669;50.206;9.998;2024-03-06T04:09:12;5.90;29.40
1351;DHT22;669;50.206;9.998;2024-03-06T04:15:27;5.90;29.40
1351;DHT22;669;50.206;9.998;2024-03-06T04:17:55;5.90;29.40
1351;DHT22;669;50.206;9.998;2024-03-06T04:20:23;5.80;29.30
1351;DHT22;669;50.206;9.998;2024-03-06T04:22:52;5.80;29.30
1351;DHT22;669;50.206;9.998;2024-03-06T04:25:20;5.80;29.30
1351;DHT22;669;50.206;9.998;2024-03-06T04:27:50;5.80;29.30
1351;DHT22;669;50.206;9.998;2024-03-06T04:30:18;5.80;29.30
1351;DHT22;669;50.206;9.998;2024-03-06T04:32:46;5.80;28.90
1351;DHT22;669;50.206;9.998;2024-03-06T04:35:14;5.70;28.50
1351;DHT22;669;50.206;9.998;2024-03-06T04:37:42;5.70;28.10
1351;DHT22;669;50.206;9.998;2024-03-06T04:40:12;5.60;27.80
1351;DHT22;669;50.206;9.998;2024-03-06T04:42:45;5.50;27.70
1351;DHT22;669;50.206;9.998;2024-03-06T04:45:15;5.40;26.50
1351;DHT22;669;50.206;9.998;2024-03-06T04:47:43;5.30;26.00
1351;DHT22;669;50.206;9.998;2024-03-06T04:50:12;5.20;26.30
1351;DHT22;669;50.206;9.998;2024-03-06T04:52:42;5.20;26.90
1351;DHT22;669;50.206;9.998;2024-03-06T04:55:12;5.10;27.40
1351;DHT22;669;50.206;9.998;2024-03-06T04:57:43;5.10;27.10
1351;DHT22;669;50.206;9.998;2024-03-06T05:00:12;5.00;27.80
1351;DHT22;669;50.206;9.998;2024-03-06T05:02:40;5.00;28.40
1351;DHT22;669;50.206;9.998;2024-03-06T05:05:26;5.00;28.80
1351;DHT22;669;50.206;9.998;2024-03-06T05:08:12;5.00;28.90
1351;DHT22;669;50.206;9.998;2024-03-06T05:11:00;5.00;29.20
1351;DHT22;669;50.206;9.998;2024-03-06T05:13:46;5.10;29.60
1351;DHT22;669;50.206;9.998;2024-03-06T05:16:32;5.10;28.90
1351;DHT22;669;50.206;9.998;2024-03-06T05:19:17;5.00;28.40
1351;DHT22;669;50.206;9.998;2024-03-06T05:22:03;5.00;27.50
1351;DHT22;669;50.206;9.998;2024-03-06T05:24:49;4.90;28.10
1351;DHT22;669;50.206;9.998;2024-03-06T05:27:36;4.90;28.30
1351;DHT22;669;50.206;9.998;2024-03-06T05:30:21;4.90;28.80
1351;DHT22;669;50.206;9.998;2024-03-06T05:33:07;4.90;28.80
1351;DHT22;669;50.206;9.998;2024-03-06T05:35:53;4.90;29.00
1351;DHT22;669;50.206;9.998;2024-03-06T05:38:38;4.90;29.40
1351;DHT22;669;50.206;9.998;2024-03-06T05:41:24;5.00;29.80
1351;DHT22;669;50.206;9.998;2024-03-06T05:44:11;5.00;29.90
1351;DHT22;669;50.206;9.998;2024-03-06T05:46:57;5.10;30.30
1351;DHT22;669;50.206;9.998;2024-03-06T05:49:42;5.10;30.20
1351;DHT22;669;50.206;9.998;2024-03-06T05:52:28;5.10;29.40
1351;DHT22;669;50.206;9.998;2024-03-06T05:55:13;5.20;29.50
1351;DHT22;669;50.206;9.998;2024-03-06T05:57:59;5.10;29.40
1351;DHT22;669;50.206;9.998;2024-03-06T06:00:41;5.20;30.30
1351;DHT22;669;50.206;9.998;2024-03-06T06:03:10;5.20;30.70
1351;DHT22;669;50.206;9.998;2024-03-06T06:05:39;5.30;30.80
1351;DHT22;669;50.206;9.998;2024-03-06T06:08:07;5.30;30.80
1351;DHT22;669;50.206;9.998;2024-03-06T06:10:36;5.40;30.60
1351;DHT22;669;50.206;9.998;2024-03-06T06:13:04;5.40;30.40
1351;DHT22;669;50.206;9.998;2024-03-06T06:15:32;5.40;30.10
1351;DHT22;669;50.206;9.998;2024-03-06T06:18:01;5.40;29.60
1351;DHT22;669;50.206;9.998;2024-03-06T06:20:30;5.40;29.10
1351;DHT22;669;50.206;9.998;2024-03-06T06:22:58;5.40;29.40
1351;DHT22;669;50.206;9.998;2024-03-06T06:25:26;5.40;29.40
1351;DHT22;669;50.206;9.998;2024-03-06T06:27:54;5.40;30.20
1351;DHT22;669;50.206;9.998;2024-03-06T06:30:22;5.40;31.30
1351;DHT22;669;50.206;9.998;2024-03-06T06:32:50;5.50;31.40
1351;DHT22;669;50.206;9.998;2024-03-06T06:35:19;5.60;31.80
1351;DHT22;669;50.206;9.998;2024-03-06T06:37:49;5.60;31.70
1351;DHT22;669;50.206;9.998;2024-03-06T06:40:17;5.70;31.60
1351;DHT22;669;50.206;9.998;2024-03-06T06:42:49;5.70;31.20
1351;DHT22;669;50.206;9.998;2024-03-06T06:45:18;5.70;31.20
1351;DHT22;669;50.206;9.998;2024-03-06T06:47:47;5.80;30.80
1351;DHT22;669;50.206;9.998;2024-03-06T06:50:15;5.70;30.40
1351;DHT22;669;50.206;9.998;2024-03-06T06:52:45;5.70;29.40
1351;DHT22;669;50.206;9.998;2024-03-06T06:55:14;5.70;30.20
1351;DHT22;669;50.206;9.998;2024-03-06T06:57:42;5.70;30.20
1351;DHT22;669;50.206;9.998;2024-03-06T07:00:11;5.70;30.30
1351;DHT22;669;50.206;9.998;2024-03-06T07:02:39;5.80;30.50
1351;DHT22;669;50.206;9.998;2024-03-06T07:05:09;5.80;31.20
1351;DHT22;669;50.206;9.998;2024-03-06T07:07:38;5.80;30.50
1351;DHT22;669;50.206;9.998;2024-03-06T07:10:08;5.90;30.80
1351;DHT22;669;50.206;9.998;2024-03-06T07:12:37;5.90;30.90
1351;DHT22;669;50.206;9.998;2024-03-06T07:15:05;5.90;31.60
1351;DHT22;669;50.206;9.998;2024-03-06T07:17:34;6.00;31.50
1351;DHT22;669;50.206;9.998;2024-03-06T07:20:03;6.00;31.50
1351;DHT22;669;50.206;9.998;2024-03-06T07:22:32;6.10;31.60
1351;DHT22;669;50.206;9.998;2024-03-06T07:25:00;6.10;31.40
1351;DHT22;669;50.206;9.998;2024-03-06T07:27:30;6.20;31.20
1351;DHT22;669;50.206;9.998;2024-03-06T07:29:58;6.30;31.40
1351;DHT22;669;50.206;9.998;2024-03-06T07:32:26;6.30;30.90
1351;DHT22;669;50.206;9.998;2024-03-06T07:34:54;6.40;30.80
1351;DHT22;669;50.206;9.998;2024-03-06T07:37:22;6.50;30.60
1351;DHT22;669;50.206;9.998;2024-03-06T07:39:50;6.60;30.30
1351;DHT22;669;50.206;9.998;2024-03-06T07:42:19;6.60;30.10
1351;DHT22;669;50.206;9.998;2024-03-06T07:44:49;6.70;29.90
1351;DHT22;669;50.206;9.998;2024-03-06T07:47:17;6.70;29.90
1351;DHT22;669;50.206;9.998;2024-03-06T07:49:45;6.80;29.90
1351;DHT22;669;50.206;9.998;2024-03-06T07:52:13;6.90;29.40
1351;DHT22;669;50.206;9.998;2024-03-06T07:54:41;6.90;28.50
1351;DHT22;669;50.206;9.998;2024-03-06T07:57:09;6.90;27.70
1351;DHT22;669;50.206;9.998;2024-03-06T07:59:37;6.90;27.50
1351;DHT22;669;50.206;9.998;2024-03-06T08:02:06;7.00;26.80
1351;DHT22;669;50.206;9.998;2024-03-06T08:04:35;7.00;26.40
1351;DHT22;669;50.206;9.998;2024-03-06T08:07:03;7.10;26.40
1351;DHT22;669;50.206;9.998;2024-03-06T08:09:31;7.20;26.00
1351;DHT22;669;50.206;9.998;2024-03-06T08:11:59;7.20;25.50
1351;DHT22;669;50.206;9.998;2024-03-06T08:14:27;7.30;25.30
1351;DHT22;669;50.206;9.998;2024-03-06T08:16:55;7.40;25.30
1351;DHT22;669;50.206;9.998;2024-03-06T08:19:25;7.40;24.90
1351;DHT22;669;50.206;9.998;2024-03-06T08:21:53;7.50;25.30
1351;DHT22;669;50.206;9.998;2024-03-06T08:24:21;7.60;24.00
1351;DHT22;669;50.206;9.998;2024-03-06T08:26:49;7.70;23.70
1351;DHT22;669;50.206;9.998;2024-03-06T08:29:17;7.70;23.70
1351;DHT22;669;50.206;9.998;2024-03-06T08:31:45;7.80;23.00
1351;DHT22;669;50.206;9.998;2024-03-06T08:34:13;7.80;20.30
1351;DHT22;669;50.206;9.998;2024-03-06T08:36:44;7.90;19.10
1351;DHT22;669;50.206;9.998;2024-03-06T08:39:13;7.90;19.20
1351;DHT22;669;50.206;9.998;2024-03-06T08:41:43;7.90;19.70
1351;DHT22;669;50.206;9.998;2024-03-06T08:44:11;8.00;18.80
1351;DHT22;669;50.206;9.998;2024-03-06T08:46:39;8.10;17.40
1351;DHT22;669;50.206;9.998;2024-03-06T08:49:07;8.10;18.10
1351;DHT22;669;50.206;9.998;2024-03-06T08:51:37;8.10;16.70
1351;DHT22;669;50.206;9.998;2024-03-06T08:54:06;8.10;15.90
1351;DHT22;669;50.206;9.998;2024-03-06T08:56:43;8.20;15.40
1351;DHT22;669;50.206;9.998;2024-03-06T08:59:11;8.20;15.40
1351;DHT22;669;50.206;9.998;2024-03-06T09:01:39;8.30;15.50
1351;DHT22;669;50.206;9.998;2024-03-06T09:04:07;8.30;14.40
1351;DHT22;669;50.206;9.998;2024-03-06T09:06:35;8.40;14.00
1351;DHT22;669;50.206;9.998;2024-03-06T09:09:03;8.40;12.90
1351;DHT22;669;50.206;9.998;2024-03-06T09:11:33;8.50;13.40
1351;DHT22;669;50.206;9.998;2024-03-06T09:14:01;8.60;13.40
1351;DHT22;669;50.206;9.998;2024-03-06T09:16:31;8.70;12.50
1351;DHT22;669;50.206;9.998;2024-03-06T09:18:59;8.80;12.50
1351;DHT22;669;50.206;9.998;2024-03-06T09:21:27;8.90;12.50
1351;DHT22;669;50.206;9.998;2024-03-06T09:23:55;9.00;13.60
1351;DHT22;669;50.206;9.998;2024-03-06T09:26:23;9.00;12.40
1351;DHT22;669;50.206;9.998;2024-03-06T09:28:52;9.00;11.60
1351;DHT22;669;50.206;9.998;2024-03-06T09:31:20;9.10;10.90
1351;DHT22;669;50.206;9.998;2024-03-06T09:33:48;9.20;10.80
1351;DHT22;669;50.206;9.998;2024-03-06T09:36:16;9.20;11.40
1351;DHT22;669;50.206;9.998;2024-03-06T09:38:44;9.40;11.00
1351;DHT22;669;50.206;9.998;2024-03-06T09:41:13;9.50;10.50
1351;DHT22;669;50.206;9.998;2024-03-06T09:43:41;9.70;9.80
1351;DHT22;669;50.206;9.998;2024-03-06T09:46:13;10.00;8.40
1351;DHT22;669;50.206;9.998;2024-03-06T09:48:45;10.10;6.70
1351;DHT22;669;50.206;9.998;2024-03-06T09:51:14;10.40;5.90
1351;DHT22;669;50.206;9.998;2024-03-06T09:53:42;10.60;5.30
1351;DHT22;669;50.206;9.998;2024-03-06T09:56:11;10.90;5.50
1351;DHT22;669;50.206;9.998;2024-03-06T09:58:40;11.20;3.20
1351;DHT22;669;50.206;9.998;2024-03-06T10:01:09;11.50;1.70
1351;DHT22;669;50.206;9.998;2024-03-06T10:03:40;11.50;1.00
1351;DHT22;669;50.206;9.998;2024-03-06T10:06:09;11.50;1.00
1351;DHT22;669;50.206;9.998;2024-03-06T10:08:42;11.50;1.00
1351;DHT22;669;50.206;9.998;2024-03-06T10:11:11;11.30;1.00
1351;DHT22;669;50.206;9.998;2024-03-06T10:13:39;11.20;1.00
1351;DHT22;669;50.206;9.998;2024-03-06T10:16:07;11.10;1.00
1351;DHT22;669;50.206;9.998;2024-03-06T10:18:37;11.00;1.00
1351;DHT22;669;50.206;9.998;2024-03-06T10:21:08;10.90;1.00
1351;DHT22;669;50.206;9.998;2024-03-06T10:23:36;10.70;1.00
1351;DHT22;669;50.206;9.998;2024-03-06T10:26:07;10.70;1.00
1351;DHT22;669;50.206;9.998;2024-03-06T10:28:36;10.60;1.00
1351;DHT22;669;50.206;9.998;2024-03-06T10:31:05;10.40;1.00
1351;DHT22;669;50.206;9.998;2024-03-06T10:33:34;10.20;1.00
1351;DHT22;669;50.206;9.998;2024-03-06T10:36:05;10.20;1.00
1351;DHT22;669;50.206;9.998;2024-03-06T10:38:36;10.10;1.00
1351;DHT22;669;50.206;9.998;2024-03-06T10:41:08;10.00;2.30
1351;DHT22;669;50.206;9.998;2024-03-06T10:43:43;9.90;3.40
1351;DHT22;669;50.206;9.998;2024-03-06T10:46:12;9.90;2.10
1351;DHT22;669;50.206;9.998;2024-03-06T10:48:41;9.80;2.60
1351;DHT22;669;50.206;9.998;2024-03-06T10:51:13;9.80;1.50
1351;DHT22;669;50.206;9.998;2024-03-06T10:53:44;9.80;3.40
1351;DHT22;669;50.206;9.998;2024-03-06T10:56:13;9.80;1.60
1351;DHT22;669;50.206;9.998;2024-03-06T10:58:42;9.90;2.00
1351;DHT22;669;50.206;9.998;2024-03-06T11:01:10;9.90;2.20
1351;DHT22;669;50.206;9.998;2024-03-06T11:03:39;9.90;1.10
1351;DHT22;669;50.206;9.998;2024-03-06T11:06:08;10.00;1.30
1351;DHT22;669;50.206;9.998;2024-03-06T11:08:36;10.10;1.50
1351;DHT22;669;50.206;9.998;2024-03-06T11:11:21;10.20;1.00
1351;DHT22;669;50.206;9.998;2024-03-06T11:13:50;10.40;1.00
1351;DHT22;669;50.206;9.998;2024-03-06T11:16:18;10.80;2.60
1351;DHT22;669;50.206;9.998;2024-03-06T11:18:46;11.40;1.00
1351;DHT22;669;50.206;9.998;2024-03-06T11:21:31;11.70;1.00
1351;DHT22;669;50.206;9.998;2024-03-06T11:24:15;12.10;1.00
1351;DHT22;669;50.206;9.998;2024-03-06T11:26:54;12.20;1.00
1351;DHT22;669;50.206;9.998;2024-03-06T11:29:23;12.10;1.00
1351;DHT22;669;50.206;9.998;2024-03-06T11:32:04;11.90;1.00
1351;DHT22;669;50.206;9.998;2024-03-06T11:34:35;11.80;1.00
1351;DHT22;669;50.206;9.998;2024-03-06T11:37:05;11.60;1.00
1351;DHT22;669;50.206;9.998;2024-03-06T11:39:37;11.40;1.00
1351;DHT22;669;50.206;9.998;2024-03-06T11:42:07;11.30;1.00
1351;DHT22;669;50.206;9.998;2024-03-06T11:44:36;11.60;1.00
1351;DHT22;669;50.206;9.998;2024-03-06T11:47:06;11.60;1.00
1351;DHT22;669;50.206;9.998;2024-03-06T11:49:36;11.40;1.00
1351;DHT22;669;50.206;9.998;2024-03-06T11:52:06;11.30;1.00
1351;DHT22;669;50.206;9.998;2024-03-06T11:54:37;11.20;1.00
1351;DHT22;669;50.206;9.998;2024-03-06T11:57:07;11.00;1.00
1351;DHT22;669;50.206;9.998;2024-03-06T11:59:37;10.90;1.00
1351;DHT22;669;50.206;9.998;2024-03-06T12:02:06;10.90;1.00
1351;DHT22;669;50.206;9.998;2024-03-06T12:04:37;10.90;1.00
1351;DHT22;669;50.206;9.998;2024-03-06T12:07:07;10.90;1.00
1351;DHT22;669;50.206;9.998;2024-03-06T12:09:38;11.00;1.00
1351;DHT22;669;50.206;9.998;2024-03-06T12:12:11;10.90;1.00
1351;DHT22;669;50.206;9.998;2024-03-06T12:14:40;11.00;1.00
1351;DHT22;669;50.206;9.998;2024-03-06T12:17:13;11.10;1.00
1351;DHT22;669;50.206;9.998;2024-03-06T12:19:43;11.30;1.00
1351;DHT22;669;50.206;9.998;2024-03-06T12:22:12;11.30;1.00
1351;DHT22;669;50.206;9.998;2024-03-06T12:24:41;11.40;1.00
1351;DHT22;669;50.206;9.998;2024-03-06T12:27:11;11.40;1.00
1351;DHT22;669;50.206;9.998;2024-03-06T12:29:40;11.50;1.00
1351;DHT22;669;50.206;9.998;2024-03-06T12:32:16;11.50;1.00
1351;DHT22;669;50.206;9.998;2024-03-06T12:34:56;11.40;1.00
1351;DHT22;669;50.206;9.998;2024-03-06T12:37:29;11.30;1.00
1351;DHT22;669;50.206;9.998;2024-03-06T12:40:02;11.20;1.00
1351;DHT22;669;50.206;9.998;2024-03-06T12:42:33;11.10;1.00
1351;DHT22;669;50.206;9.998;2024-03-06T12:45:01;11.00;1.00
1351;DHT22;669;50.206;9.998;2024-03-06T12:47:30;10.70;1.00
1351;DHT22;669;50.206;9.998;2024-03-06T12:49:58;10.70;1.00
1351;DHT22;669;50.206;9.998;2024-03-06T12:52:27;10.70;1.00
1351;DHT22;669;50.206;9.998;2024-03-06T12:54:55;10.70;1.00
1351;DHT22;669;50.206;9.998;2024-03-06T12:57:22;10.70;1.00
1351;DHT22;669;50.206;9.998;2024-03-06T12:59:52;10.80;1.00
1351;DHT22;669;50.206;9.998;2024-03-06T13:02:20;10.80;1.00
1351;DHT22;669;50.206;9.998;2024-03-06T13:04:48;10.80;1.00
1351;DHT22;669;50.206;9.998;2024-03-06T13:07:16;10.80;1.00
1351;DHT22;669;50.206;9.998;2024-03-06T13:09:44;10.80;1.00
1351;DHT22;669;50.206;9.998;2024-03-06T13:12:12;10.80;1.00
1351;DHT22;669;50.206;9.998;2024-03-06T13:14:40;10.70;1.00
1351;DHT22;669;50.206;9.998;2024-03-06T13:17:09;10.80;1.00
1351;DHT22;669;50.206;9.998;2024-03-06T13:19:37;10.80;1.00
1351;DHT22;669;50.206;9.998;2024-03-06T13:22:05;10.80;1.00
1351;DHT22;669;50.206;9.998;2024-03-06T13:24:34;10.80;1.00
1351;DHT22;669;50.206;9.998;2024-03-06T13:27:06;10.70;1.00
1351;DHT22;669;50.206;9.998;2024-03-06T13:29:34;10.70;1.00
1351;DHT22;669;50.206;9.998;2024-03-06T13:32:03;10.70;1.00
1351;DHT22;669;50.206;9.998;2024-03-06T13:34:33;10.60;1.00
1351;DHT22;669;50.206;9.998;2024-03-06T13:37:01;10.60;1.00
1351;DHT22;669;50.206;9.998;2024-03-06T13:39:28;10.50;1.00
1351;DHT22;669;50.206;9.998;2024-03-06T13:41:56;10.50;1.00
1351;DHT22;669;50.206;9.998;2024-03-06T13:44:24;10.40;1.00
1351;DHT22;669;50.206;9.998;2024-03-06T13:46:53;10.40;1.00
1351;DHT22;669;50.206;9.998;2024-03-06T13:49:37;10.40;1.00
1351;DHT22;669;50.206;9.998;2024-03-06T13:52:06;10.40;1.00
1351;DHT22;669;50.206;9.998;2024-03-06T13:54:38;10.40;1.00
1351;DHT22;669;50.206;9.998;2024-03-06T13:57:06;10.40;1.00
1351;DHT22;669;50.206;9.998;2024-03-06T13:59:34;10.40;1.00
1351;DHT22;669;50.206;9.998;2024-03-06T14:02:06;10.50;1.00
1351;DHT22;669;50.206;9.998;2024-03-06T14:04:35;10.60;1.00
1351;DHT22;669;50.206;9.998;2024-03-06T14:07:03;10.70;1.00
1351;DHT22;669;50.206;9.998;2024-03-06T14:09:32;10.70;1.00
1351;DHT22;669;50.206;9.998;2024-03-06T14:12:00;10.80;1.00
1351;DHT22;669;50.206;9.998;2024-03-06T14:14:28;10.80;1.00
1351;DHT22;669;50.206;9.998;2024-03-06T14:16:56;10.90;1.00
1351;DHT22;669;50.206;9.998;2024-03-06T14:19:32;10.80;1.00
1351;DHT22;669;50.206;9.998;2024-03-06T14:22:00;10.80;1.00
1351;DHT22;669;50.206;9.998;2024-03-06T14:24:31;10.80;1.00
1351;DHT22;669;50.206;9.998;2024-03-06T14:26:59;11.20;1.00
1351;DHT22;669;50.206;9.998;2024-03-06T14:29:27;11.40;1.00
1351;DHT22;669;50.206;9.998;2024-03-06T14:31:55;11.60;1.00
1351;DHT22;669;50.206;9.998;2024-03-06T14:34:24;11.70;1.00
1351;DHT22;669;50.206;9.998;2024-03-06T14:36:53;11.60;1.00
1351;DHT22;669;50.206;9.998;2024-03-06T14:39:22;11.40;1.00
1351;DHT22;669;50.206;9.998;2024-03-06T14:41:52;11.20;1.00
1351;DHT22;669;50.206;9.998;2024-03-06T14:44:20;11.10;1.00
1351;DHT22;669;50.206;9.998;2024-03-06T14:46:48;11.00;1.00
1351;DHT22;669;50.206;9.998;2024-03-06T14:49:16;10.90;1.00
1351;DHT22;669;50.206;9.998;2024-03-06T14:51:44;11.00;1.00
1351;DHT22;669;50.206;9.998;2024-03-06T14:54:13;11.20;1.00
1351;DHT22;669;50.206;9.998;2024-03-06T14:56:42;11.50;1.00
1351;DHT22;669;50.206;9.998;2024-03-06T14:59:10;11.60;1.00
1351;DHT22;669;50.206;9.998;2024-03-06T15:01:38;11.60;1.00
1351;DHT22;669;50.206;9.998;2024-03-06T15:04:06;11.60;1.00
1351;DHT22;669;50.206;9.998;2024-03-06T15:06:34;11.50;1.00
1351;DHT22;669;50.206;9.998;2024-03-06T15:09:02;11.30;1.00
1351;DHT22;669;50.206;9.998;2024-03-06T15:11:32;11.20;1.00
1351;DHT22;669;50.206;9.998;2024-03-06T15:14:00;11.10;1.00
1351;DHT22;669;50.206;9.998;2024-03-06T15:16:30;11.10;1.00
1351;DHT22;669;50.206;9.998;2024-03-06T15:18:58;11.10;1.00
1351;DHT22;669;50.206;9.998;2024-03-06T15:21:26;11.00;1.00
1351;DHT22;669;50.206;9.998;2024-03-06T15:23:54;10.90;1.00
1351;DHT22;669;50.206;9.998;2024-03-06T15:26:22;10.80;1.00
1351;DHT22;669;50.206;9.998;2024-03-06T15:28:51;10.70;1.00
1351;DHT22;669;50.206;9.998;2024-03-06T15:31:20;10.70;1.00
1351;DHT22;669;50.206;9.998;2024-03-06T15:33:48;10.70;1.00
1351;DHT22;669;50.206;9.998;2024-03-06T15:36:17;10.60;1.00
1351;DHT22;669;50.206;9.998;2024-03-06T15:38:45;10.50;1.00
1351;DHT22;669;50.206;9.998;2024-03-06T15:41:13;10.50;1.00
1351;DHT22;669;50.206;9.998;2024-03-06T15:43:41;10.40;1.00
1351;DHT22;669;50.206;9.998;2024-03-06T15:46:11;10.40;1.00
1351;DHT22;669;50.206;9.998;2024-03-06T15:48:39;10.40;1.00
1351;DHT22;669;50.206;9.998;2024-03-06T15:51:07;10.40;1.00
1351;DHT22;669;50.206;9.998;2024-03-06T15:53:35;10.40;1.00
1351;DHT22;669;50.206;9.998;2024-03-06T15:56:03;10.30;1.00
1351;DHT22;669;50.206;9.998;2024-03-06T15:58:31;10.30;1.00
1351;DHT22;669;50.206;9.998;2024-03-06T16:00:59;10.20;1.00
1351;DHT22;669;50.206;9.998;2024-03-06T16:03:32;10.20;1.00
1351;DHT22;669;50.206;9.998;2024-03-06T16:06:00;10.20;1.00
1351;DHT22;669;50.206;9.998;2024-03-06T16:08:41;10.10;1.00
1351;DHT22;669;50.206;9.998;2024-03-06T16:11:10;10.00;1.00
1351;DHT22;669;50.206;9.998;2024-03-06T16:13:38;10.00;1.00
1351;DHT22;669;50.206;9.998;2024-03-06T16:16:06;10.00;1.00
1351;DHT22;669;50.206;9.998;2024-03-06T16:18:36;9.90;1.00
1351;DHT22;669;50.206;9.998;2024-03-06T16:21:04;9.90;1.00
1351;DHT22;669;50.206;9.998;2024-03-06T16:23:33;9.90;1.00
1351;DHT22;669;50.206;9.998;2024-03-06T16:26:01;9.80;1.00
1351;DHT22;669;50.206;9.998;2024-03-06T16:28:29;9.70;1.00
1351;DHT22;669;50.206;9.998;2024-03-06T16:30:57;9.70;1.00
1351;DHT22;669;50.206;9.998;2024-03-06T16:33:25;9.60;1.00
1351;DHT22;669;50.206;9.998;2024-03-06T16:35:54;9.60;1.00
1351;DHT22;669;50.206;9.998;2024-03-06T16:38:22;9.60;1.00
1351;DHT22;669;50.206;9.998;2024-03-06T16:40:51;9.50;1.00
1351;DHT22;669;50.206;9.998;2024-03-06T16:43:19;9.50;1.00
1351;DHT22;669;50.206;9.998;2024-03-06T16:45:47;9.50;1.00
1351;DHT22;669;50.206;9.998;2024-03-06T16:48:15;9.50;1.00
1351;DHT22;669;50.206;9.998;2024-03-06T16:50:43;9.50;1.00
1351;DHT22;669;50.206;9.998;2024-03-06T16:53:13;9.50;1.00
1351;DHT22;669;50.206;9.998;2024-03-06T16:55:41;9.40;1.00
1351;DHT22;669;50.206;9.998;2024-03-06T16:58:09;9.40;1.00